Terminal Aerodrome Forecast
Issued by NWS

Home | Current Version | Previous Version | Text Only | Print | Product List | Glossary On
Versions: 1 2 3 4 5 6 7 8 9 10 11 12 13 14 15 16 17
000
FTUS43 KGRB 030534
TAFAUW
TAF
KAUW 030534Z 0306/0406 04005KT P6SM VCSH SCT015 BKN030
      TEMPO 0306/0310 2SM SHRA BR SCT005 BKN015
     FM031000 VRB03KT 3SM BR SCT003 BKN015
      TEMPO 0310/0314 1SM BR BKN003
     FM031500 12005KT P6SM BKN015
     FM031800 12005KT P6SM VCSH SCT020 BKN040
     FM032100 11005KT P6SM SCT040 SCT100=

USA.gov is the U.S. government's official web portal to all federal, state and local government web resources and services.